createdAt,value
2018-06-23T00:00:23.406Z,14.68
2018-06-23T00:01:03.967Z,14.66
2018-06-23T00:01:44.529Z,14.66
2018-06-23T00:02:25.093Z,14.69
2018-06-23T00:03:05.664Z,14.69
2018-06-23T00:03:46.217Z,14.66
2018-06-23T00:04:26.780Z,14.73
2018-06-23T00:05:07.354Z,14.7
2018-06-23T00:05:47.920Z,14.62
2018-06-23T00:06:28.486Z,14.73
2018-06-23T00:07:09.036Z,14.55
2018-06-23T00:07:49.588Z,14.65
2018-06-23T00:08:30.150Z,14.55
2018-06-23T00:09:10.712Z,14.63
2018-06-23T00:09:51.251Z,14.63
2018-06-23T00:10:31.801Z,14.59
2018-06-23T00:11:12.372Z,14.59
2018-06-23T00:11:52.916Z,14.62
2018-06-23T00:12:33.480Z,14.6
2018-06-23T00:13:14.026Z,14.58
2018-06-23T00:13:54.591Z,14.6
2018-06-23T00:14:35.153Z,14.6
2018-06-23T00:15:15.717Z,14.68
2018-06-23T00:15:56.287Z,14.58
2018-06-23T00:16:36.853Z,14.69
2018-06-23T00:17:17.421Z,14.65
2018-06-23T00:17:57.996Z,14.68
2018-06-23T00:18:38.523Z,14.7
2018-06-23T00:19:19.080Z,14.77
2018-06-23T00:19:59.615Z,14.68
2018-06-23T00:20:40.162Z,14.69
2018-06-23T00:21:20.715Z,14.65
2018-06-23T00:22:01.262Z,14.68
2018-06-23T00:22:41.823Z,14.69
2018-06-23T00:23:22.366Z,14.72
2018-06-23T00:24:02.927Z,14.69
2018-06-23T00:24:43.483Z,14.68
2018-06-23T00:25:24.049Z,14.66
2018-06-23T00:26:04.608Z,14.65
2018-06-23T00:26:45.179Z,14.73
2018-06-23T00:27:25.740Z,14.65
2018-06-23T00:28:06.297Z,14.59
2018-06-23T00:28:46.859Z,14.55
2018-06-23T00:29:27.418Z,14.59
2018-06-23T00:30:07.967Z,14.6
2018-06-23T00:30:48.533Z,14.58
2018-06-23T00:31:29.086Z,14.65
2018-06-23T00:32:09.635Z,14.55
2018-06-23T00:32:50.233Z,14.59
2018-06-23T00:33:30.792Z,14.51
2018-06-23T00:34:11.354Z,14.54
2018-06-23T00:34:51.917Z,14.53
2018-06-23T00:35:32.467Z,14.65
2018-06-23T00:36:13.024Z,14.62
2018-06-23T00:36:53.603Z,14.51
2018-06-23T00:37:34.141Z,14.6
2018-06-23T00:38:14.711Z,14.54
2018-06-23T00:38:55.292Z,14.5
2018-06-23T00:39:35.853Z,14.51
2018-06-23T00:40:16.431Z,14.63
2018-06-23T00:40:56.970Z,14.69
2018-06-23T00:41:37.545Z,14.48
2018-06-23T00:42:18.079Z,14.51
2018-06-23T00:42:58.657Z,14.45
2018-06-23T00:43:39.207Z,14.59
2018-06-23T00:44:19.775Z,14.54
2018-06-23T00:45:00.329Z,14.53
2018-06-23T00:45:40.901Z,14.54
2018-06-23T00:46:21.456Z,14.51
2018-06-23T00:47:02.008Z,14.53
2018-06-23T00:47:42.582Z,14.53
2018-06-23T00:48:23.155Z,14.45
2018-06-23T00:49:03.704Z,14.48
2018-06-23T00:49:44.257Z,14.48
2018-06-23T00:50:24.804Z,14.62
2018-06-23T00:51:05.354Z,14.58
2018-06-23T00:51:45.904Z,14.48
2018-06-23T00:52:26.459Z,14.51
2018-06-23T00:53:07.008Z,14.63
2018-06-23T00:53:47.560Z,14.63
2018-06-23T00:54:28.135Z,14.51
2018-06-23T00:55:08.701Z,14.51
2018-06-23T00:55:49.273Z,14.53
2018-06-23T00:56:29.912Z,14.53
2018-06-23T00:57:10.489Z,14.5
2018-06-23T00:57:51.054Z,14.5
2018-06-23T00:58:31.592Z,14.5
2018-06-23T00:59:12.154Z,14.51
2018-06-23T00:59:52.705Z,14.48
2018-06-23T01:00:33.250Z,14.55
2018-06-23T01:01:13.802Z,14.55
2018-06-23T01:01:54.357Z,14.53
2018-06-23T01:02:34.925Z,14.51
2018-06-23T01:03:15.470Z,14.53
2018-06-23T01:03:56.032Z,14.54
2018-06-23T01:04:36.586Z,14.6
2018-06-23T01:05:17.185Z,14.45
2018-06-23T01:05:57.756Z,14.53
2018-06-23T01:06:38.312Z,14.5
2018-06-23T01:07:18.872Z,14.51
2018-06-23T01:07:59.434Z,14.63
2018-06-23T01:08:39.981Z,14.54
2018-06-23T01:09:20.552Z,14.5
2018-06-23T01:10:01.110Z,14.5
2018-06-23T01:10:41.682Z,14.48
2018-06-23T01:11:22.264Z,14.51
2018-06-23T01:12:02.807Z,14.54
2018-06-23T01:12:43.363Z,14.51
2018-06-23T01:13:23.935Z,14.65
2018-06-23T01:14:04.486Z,14.62
2018-06-23T01:14:45.095Z,14.5
2018-06-23T01:15:25.653Z,14.51
2018-06-23T01:16:06.216Z,14.51
2018-06-23T01:16:46.779Z,14.53
2018-06-23T01:17:27.327Z,14.51
2018-06-23T01:18:07.879Z,14.53
2018-06-23T01:18:48.433Z,14.5
2018-06-23T01:19:28.994Z,14.54
2018-06-23T01:20:09.565Z,14.53
2018-06-23T01:20:50.127Z,14.48
2018-06-23T01:21:30.700Z,14.48
2018-06-23T01:22:11.277Z,14.53
2018-06-23T01:22:51.815Z,14.51
2018-06-23T01:23:32.376Z,14.48
2018-06-23T01:24:12.928Z,14.55
2018-06-23T01:24:53.479Z,14.54
2018-06-23T01:25:34.029Z,14.55
2018-06-23T01:26:14.590Z,14.54
2018-06-23T01:26:55.148Z,14.58
2018-06-23T01:27:35.685Z,14.5
2018-06-23T01:28:16.251Z,14.47
2018-06-23T01:28:56.818Z,14.5
2018-06-23T01:29:37.385Z,14.54
2018-06-23T01:30:17.959Z,14.5
2018-06-23T01:30:58.522Z,14.68
2018-06-23T01:31:39.090Z,14.5
2018-06-23T01:32:19.643Z,14.59
2018-06-23T01:33:00.275Z,14.54
2018-06-23T01:33:40.843Z,14.54
2018-06-23T01:34:21.410Z,14.5
2018-06-23T01:35:02.024Z,14.68
2018-06-23T01:35:42.605Z,14.51
2018-06-23T01:36:23.153Z,14.63
2018-06-23T01:37:03.715Z,14.66
2018-06-23T01:37:44.277Z,14.53
2018-06-23T01:38:24.855Z,14.54
2018-06-23T01:39:05.423Z,14.63
2018-06-23T01:39:45.991Z,14.59
2018-06-23T01:40:26.555Z,14.53
2018-06-23T01:41:07.104Z,14.5
2018-06-23T01:41:47.672Z,14.51
2018-06-23T01:42:28.206Z,14.51
2018-06-23T01:43:08.776Z,14.48
2018-06-23T01:43:49.381Z,14.48
2018-06-23T01:44:29.977Z,14.59
2018-06-23T01:45:10.560Z,14.58
2018-06-23T01:45:51.114Z,14.5
2018-06-23T01:46:31.672Z,14.54
2018-06-23T01:47:12.249Z,14.47
2018-06-23T01:47:52.817Z,14.59
2018-06-23T01:48:33.363Z,14.47
2018-06-23T01:49:13.944Z,14.41
2018-06-23T01:49:54.501Z,14.51
2018-06-23T01:50:35.074Z,14.51
2018-06-23T01:51:15.640Z,14.48
2018-06-23T01:51:56.210Z,14.59
2018-06-23T01:52:36.780Z,14.48
2018-06-23T01:53:17.332Z,14.6
2018-06-23T01:53:57.892Z,14.55
2018-06-23T01:54:38.434Z,14.48
2018-06-23T01:55:18.984Z,14.5
2018-06-23T01:55:59.547Z,14.44
2018-06-23T01:56:40.109Z,14.62
2018-06-23T01:57:20.649Z,14.54
2018-06-23T01:58:01.186Z,14.47
2018-06-23T01:58:41.744Z,14.59
2018-06-23T01:59:22.355Z,14.59
2018-06-23T02:00:02.921Z,14.54
2018-06-23T02:00:43.479Z,14.68
2018-06-23T02:01:24.045Z,14.45
2018-06-23T02:02:04.594Z,14.5
2018-06-23T02:02:45.139Z,14.54
2018-06-23T02:03:25.694Z,14.62
2018-06-23T02:04:06.242Z,14.51
2018-06-23T02:04:46.785Z,14.53
2018-06-23T02:05:27.355Z,14.45
2018-06-23T02:06:07.895Z,14.48
2018-06-23T02:06:48.444Z,14.53
2018-06-23T02:07:28.988Z,14.59
2018-06-23T02:08:09.537Z,14.53
2018-06-23T02:08:50.090Z,14.45
2018-06-23T02:09:30.645Z,14.51
2018-06-23T02:10:11.206Z,14.44
2018-06-23T02:10:51.763Z,14.44
2018-06-23T02:11:32.311Z,14.36
2018-06-23T02:12:12.870Z,14.45
2018-06-23T02:12:53.422Z,14.35
2018-06-23T02:13:33.974Z,14.36
2018-06-23T02:14:14.530Z,14.4
2018-06-23T02:14:55.099Z,14.36
2018-06-23T02:15:35.659Z,14.43
2018-06-23T02:16:16.218Z,14.35
2018-06-23T02:16:56.762Z,14.41
2018-06-23T02:17:37.327Z,14.37
2018-06-23T02:18:17.887Z,14.37
2018-06-23T02:18:58.443Z,14.35
2018-06-23T02:19:39.003Z,14.3
2018-06-23T02:20:19.571Z,14.22
2018-06-23T02:21:00.134Z,14.15
2018-06-23T02:21:40.694Z,14.15
2018-06-23T02:22:21.234Z,14.11
2018-06-23T02:23:01.792Z,14.04
2018-06-23T02:23:42.355Z,14.12
2018-06-23T02:24:22.894Z,14.08
2018-06-23T02:25:03.450Z,14.04
2018-06-23T02:25:44.023Z,14.04
2018-06-23T02:26:24.603Z,14.04
2018-06-23T02:27:05.201Z,14.08
2018-06-23T02:27:45.792Z,14.07
2018-06-23T02:28:26.302Z,14.05
2018-06-23T02:29:06.864Z,14.08
2018-06-23T02:29:47.436Z,14.08
2018-06-23T02:30:27.995Z,14.11
2018-06-23T02:31:08.548Z,14.11
2018-06-23T02:31:49.133Z,14.12
2018-06-23T02:32:29.698Z,14.14
2018-06-23T02:33:10.316Z,14.12
2018-06-23T02:33:50.853Z,14.17
2018-06-23T02:34:31.413Z,14.12
2018-06-23T02:35:11.972Z,14.2
2018-06-23T02:35:52.533Z,14.17
2018-06-23T02:36:33.069Z,14.14
2018-06-23T02:37:13.637Z,14.17
2018-06-23T02:37:54.175Z,14.1
2018-06-23T02:38:34.742Z,14.15
2018-06-23T02:39:15.291Z,14.08
2018-06-23T02:39:55.853Z,14.18
2018-06-23T02:40:36.422Z,14.08
2018-06-23T02:41:16.965Z,14.15
2018-06-23T02:41:57.535Z,14.18
2018-06-23T02:42:38.093Z,14.18
2018-06-23T02:43:18.645Z,14.11
2018-06-23T02:43:59.202Z,14.11
2018-06-23T02:44:39.766Z,14.12
2018-06-23T02:45:20.329Z,14.12
2018-06-23T02:46:00.881Z,14.17
2018-06-23T02:46:41.431Z,14.17
2018-06-23T02:47:21.982Z,14.1
2018-06-23T02:48:02.543Z,14.12
2018-06-23T02:48:43.083Z,14.14
2018-06-23T02:49:23.658Z,14.15
2018-06-23T02:50:04.228Z,14.17
2018-06-23T02:50:44.805Z,14.18
2018-06-23T02:51:25.357Z,14.15
2018-06-23T02:52:05.934Z,14.11
2018-06-23T02:52:46.491Z,14.14
2018-06-23T02:53:27.062Z,14.1
2018-06-23T02:54:07.638Z,14.07
2018-06-23T02:54:48.169Z,14.08
2018-06-23T02:55:28.719Z,14.05
2018-06-23T02:56:09.285Z,14.1
2018-06-23T02:56:49.880Z,14.11
2018-06-23T02:57:30.441Z,14.1
2018-06-23T02:58:11.011Z,14.14
2018-06-23T02:58:51.569Z,14.14
2018-06-23T02:59:32.121Z,14.14
2018-06-23T03:00:12.672Z,14.1
2018-06-23T03:00:53.242Z,14.1
2018-06-23T03:01:33.807Z,14.17
2018-06-23T03:02:14.373Z,14.17
2018-06-23T03:02:54.923Z,14.1
2018-06-23T03:03:35.488Z,14.1
2018-06-23T03:04:16.063Z,14.1
2018-06-23T03:04:56.651Z,14.12
2018-06-23T03:05:37.191Z,14.08
2018-06-23T03:06:17.752Z,14.07
2018-06-23T03:06:58.315Z,14.03
2018-06-23T03:07:38.927Z,14
2018-06-23T03:08:19.490Z,13.92
2018-06-23T03:09:00.054Z,13.92
2018-06-23T03:09:40.615Z,13.89
2018-06-23T03:10:21.188Z,13.87
2018-06-23T03:11:01.738Z,13.9
2018-06-23T03:11:42.287Z,13.89
2018-06-23T03:12:22.823Z,13.87
2018-06-23T03:14:15.387Z,13.92
2018-06-23T03:14:55.935Z,13.89
2018-06-23T03:15:36.480Z,13.9
2018-06-23T03:16:17.032Z,13.87
2018-06-23T03:16:57.577Z,13.9
2018-06-23T03:17:38.128Z,13.9
2018-06-23T03:18:18.679Z,14
2018-06-23T03:18:59.234Z,13.9
2018-06-23T03:19:39.803Z,13.93
2018-06-23T03:20:20.350Z,13.97
2018-06-23T03:21:00.908Z,13.95
2018-06-23T03:21:41.440Z,13.92
2018-06-23T03:22:21.997Z,13.96
2018-06-23T03:23:02.551Z,13.9
2018-06-23T03:23:43.092Z,13.92
2018-06-23T03:24:23.646Z,13.89
2018-06-23T03:25:04.214Z,13.95
2018-06-23T03:25:44.758Z,13.89
2018-06-23T03:26:25.318Z,13.93
2018-06-23T03:27:05.856Z,13.87
2018-06-23T03:27:46.433Z,13.92
2018-06-23T03:28:26.962Z,13.96
2018-06-23T03:29:07.555Z,13.9
2018-06-23T03:29:48.243Z,13.92
2018-06-23T03:30:28.692Z,13.95
2018-06-23T03:31:09.225Z,13.89
2018-06-23T03:31:49.790Z,13.93
2018-06-23T03:32:30.351Z,13.9
2018-06-23T03:33:10.904Z,13.95
2018-06-23T03:33:51.451Z,13.95
2018-06-23T03:34:32.002Z,13.9
2018-06-23T03:35:12.553Z,13.95
2018-06-23T03:35:53.103Z,13.9
2018-06-23T03:36:33.656Z,13.89
2018-06-23T03:37:14.233Z,13.87
2018-06-23T03:37:54.795Z,13.97
2018-06-23T03:38:35.368Z,13.87
2018-06-23T03:39:15.986Z,14.03
2018-06-23T03:39:56.529Z,13.89
2018-06-23T03:40:37.193Z,13.89
2018-06-23T03:41:17.722Z,13.87
2018-06-23T03:41:58.251Z,13.99
2018-06-23T03:42:38.817Z,13.89
2018-06-23T03:43:19.375Z,13.95
2018-06-23T03:43:59.921Z,13.93
2018-06-23T03:44:40.475Z,13.92
2018-06-23T03:45:21.035Z,13.93
2018-06-23T03:46:01.606Z,13.93
2018-06-23T03:46:42.181Z,13.99
2018-06-23T03:47:22.765Z,14
2018-06-23T03:48:03.323Z,13.95
2018-06-23T03:48:43.857Z,13.89
2018-06-23T03:49:24.411Z,13.97
2018-06-23T03:50:04.969Z,13.99
2018-06-23T03:50:45.522Z,14.04
2018-06-23T03:51:26.057Z,14
2018-06-23T03:52:06.618Z,14.03
2018-06-23T03:52:47.192Z,13.99
2018-06-23T03:53:27.727Z,13.99
2018-06-23T03:54:08.265Z,13.97
2018-06-23T03:54:48.833Z,14
2018-06-23T03:55:29.408Z,13.97
2018-06-23T03:56:09.975Z,13.99
2018-06-23T03:56:50.528Z,13.89
2018-06-23T03:57:31.090Z,14
2018-06-23T03:58:11.644Z,14
2018-06-23T03:58:52.211Z,13.93
2018-06-23T03:59:32.783Z,14
2018-06-23T04:00:13.339Z,13.97
2018-06-23T04:00:53.896Z,14
2018-06-23T04:01:34.464Z,13.9
2018-06-23T04:02:15.052Z,14
2018-06-23T04:02:55.647Z,14.03
2018-06-23T04:03:36.198Z,13.9
2018-06-23T04:04:16.747Z,14
2018-06-23T04:04:57.327Z,13.96
2018-06-23T04:05:38.012Z,13.9
2018-06-23T04:06:18.575Z,13.92
2018-06-23T04:06:59.142Z,14
2018-06-23T04:07:39.710Z,13.97
2018-06-23T04:08:20.254Z,13.9
2018-06-23T04:09:00.810Z,13.9
2018-06-23T04:09:41.360Z,14.04
2018-06-23T04:10:21.908Z,13.97
2018-06-23T04:11:02.465Z,13.93
2018-06-23T04:11:43.048Z,13.9
2018-06-23T04:12:23.629Z,13.93
2018-06-23T04:13:04.213Z,13.95
2018-06-23T04:13:44.755Z,13.97
2018-06-23T04:14:25.307Z,13.93
2018-06-23T04:15:05.847Z,14
2018-06-23T04:15:46.410Z,13.93
2018-06-23T04:16:26.961Z,13.99
2018-06-23T04:17:07.526Z,13.97
2018-06-23T04:17:48.075Z,14.05
2018-06-23T04:18:28.613Z,13.97
2018-06-23T04:19:09.155Z,13.89
2018-06-23T04:19:49.712Z,13.96
2018-06-23T04:20:30.302Z,13.99
2018-06-23T04:21:10.865Z,13.89
2018-06-23T04:21:51.482Z,13.93
2018-06-23T04:22:32.042Z,13.97
2018-06-23T04:23:12.586Z,13.9
2018-06-23T04:23:53.120Z,13.96
2018-06-23T04:24:33.683Z,13.93
2018-06-23T04:25:14.227Z,13.93
2018-06-23T04:25:54.794Z,14.04
2018-06-23T04:26:35.360Z,13.96
2018-06-23T04:27:15.925Z,13.93
2018-06-23T04:27:56.480Z,14.03
2018-06-23T04:28:37.042Z,14.05
2018-06-23T04:29:17.673Z,13.89
2018-06-23T04:29:58.182Z,13.9
2018-06-23T04:30:38.734Z,13.93
2018-06-23T04:31:19.295Z,13.97
2018-06-23T04:31:59.831Z,13.92
2018-06-23T04:32:40.390Z,13.99
2018-06-23T04:33:20.947Z,13.99
2018-06-23T04:34:01.482Z,14.03
2018-06-23T04:34:42.041Z,14.03
2018-06-23T04:35:22.595Z,14.14
2018-06-23T04:36:03.140Z,14.05
2018-06-23T04:36:43.698Z,14.07
2018-06-23T04:37:24.246Z,14.03
2018-06-23T04:38:04.820Z,14.04
2018-06-23T04:38:45.421Z,14
2018-06-23T04:39:25.968Z,14.05
2018-06-23T04:40:06.621Z,14.12
2018-06-23T04:40:47.198Z,14.11
2018-06-23T04:41:27.774Z,14.12
2018-06-23T04:42:08.379Z,14.15
2018-06-23T04:42:48.981Z,14.11
2018-06-23T04:43:29.542Z,14.12
2018-06-23T04:44:10.103Z,14.04
2018-06-23T04:44:50.665Z,14.03
2018-06-23T04:45:31.230Z,14.03
2018-06-23T04:46:11.812Z,13.96
2018-06-23T04:46:52.350Z,13.96
2018-06-23T04:47:32.901Z,14.15
2018-06-23T04:48:13.458Z,14.04
2018-06-23T04:48:54.008Z,14.03
2018-06-23T04:49:34.566Z,14.05
2018-06-23T04:50:15.141Z,14.12
2018-06-23T04:50:55.676Z,14.1
2018-06-23T04:51:36.253Z,14.11
2018-06-23T04:52:16.839Z,14.12
2018-06-23T04:52:57.425Z,14.14
2018-06-23T04:53:37.966Z,14.12
2018-06-23T04:54:18.520Z,14.15
2018-06-23T04:54:59.067Z,14.12
2018-06-23T04:55:39.622Z,14.18
2018-06-23T04:56:20.169Z,14.17
2018-06-23T04:57:00.738Z,14.18
2018-06-23T04:57:41.275Z,14.15
2018-06-23T04:58:21.830Z,14.15
2018-06-23T04:59:02.376Z,14.17
2018-06-23T04:59:43.248Z,14.14
2018-06-23T05:00:24.151Z,14.05
2018-06-23T05:01:04.626Z,14.14
2018-06-23T05:01:45.168Z,14.12
2018-06-23T05:02:25.748Z,14.12
2018-06-23T05:03:06.273Z,14.05
2018-06-23T05:03:46.848Z,14.07
2018-06-23T05:04:27.399Z,14.04
2018-06-23T05:05:07.943Z,14.05
2018-06-23T05:05:48.652Z,14.03
2018-06-23T05:06:29.257Z,14.07
2018-06-23T05:07:09.840Z,14.05
2018-06-23T05:07:50.405Z,14.1
2018-06-23T05:08:30.997Z,14.1
2018-06-23T05:09:11.580Z,14.14
2018-06-23T05:09:52.113Z,14.17
2018-06-23T05:10:32.692Z,14.08
2018-06-23T05:11:13.278Z,14.15
2018-06-23T05:11:53.847Z,14.1
2018-06-23T05:12:34.526Z,14.12
2018-06-23T05:13:15.069Z,14.15
2018-06-23T05:13:55.750Z,14.11
2018-06-23T05:14:36.433Z,14.14
2018-06-23T05:15:17.026Z,14.17
2018-06-23T05:15:57.692Z,14.18
2018-06-23T05:16:38.307Z,14.22
2018-06-23T05:17:18.871Z,14.28
2018-06-23T05:17:59.481Z,14.29
2018-06-23T05:18:40.011Z,14.22
2018-06-23T05:19:20.602Z,14.29
2018-06-23T05:20:01.196Z,14.37
2018-06-23T05:20:41.748Z,14.45
2018-06-23T05:21:22.369Z,14.43
2018-06-23T05:22:02.907Z,14.43
2018-06-23T05:22:43.445Z,14.41
2018-06-23T05:23:24.003Z,14.4
2018-06-23T05:24:04.575Z,14.35
2018-06-23T05:24:45.120Z,14.4
2018-06-23T05:25:25.788Z,14.36
2018-06-23T05:26:06.489Z,14.3
2018-06-23T05:26:46.935Z,14.28
2018-06-23T05:27:27.550Z,14.3
2018-06-23T05:28:08.103Z,14.3
2018-06-23T05:28:48.659Z,14.33
2018-06-23T05:29:30.035Z,14.33
2018-06-23T05:30:10.645Z,14.33
2018-06-23T05:30:51.164Z,14.32
2018-06-23T05:31:31.742Z,14.26
2018-06-23T05:32:12.330Z,14.26
2018-06-23T05:32:52.884Z,14.26
2018-06-23T05:33:33.691Z,14.18
2018-06-23T05:34:14.189Z,14.33
2018-06-23T05:34:54.730Z,14.33
2018-06-23T05:35:35.305Z,14.32
2018-06-23T05:36:15.865Z,14.35
2018-06-23T05:36:56.527Z,14.44
2018-06-23T05:37:37.125Z,14.53
2018-06-23T05:38:19.246Z,14.51
2018-06-23T05:39:01.824Z,14.54
2018-06-23T05:39:42.526Z,14.5
2018-06-23T05:40:23.142Z,14.58
2018-06-23T05:41:03.705Z,14.54
2018-06-23T05:41:44.535Z,14.6
2018-06-23T05:42:26.109Z,14.58
2018-06-23T05:43:07.372Z,14.68
2018-06-23T05:43:48.711Z,14.73
2018-06-23T05:44:30.332Z,14.81
2018-06-23T05:45:12.400Z,14.84
2018-06-23T05:45:53.613Z,14.86
2018-06-23T05:46:35.138Z,14.94
2018-06-23T05:47:15.538Z,14.99
2018-06-23T05:47:57.226Z,15
2018-06-23T05:48:38.235Z,14.97
2018-06-23T05:49:18.957Z,15
2018-06-23T05:49:59.884Z,14.92
2018-06-23T05:50:40.621Z,15
2018-06-23T05:51:23.332Z,14.97
2018-06-23T05:52:04.024Z,15
2018-06-23T05:52:44.793Z,14.97
2018-06-23T05:53:25.806Z,15.02
2018-06-23T05:54:06.669Z,15.02
2018-06-23T05:54:47.424Z,15.02
2018-06-23T05:55:28.093Z,15.09
2018-06-23T05:56:08.832Z,15.1
2018-06-23T05:56:50.188Z,15.09
2018-06-23T05:57:30.910Z,15.09
2018-06-23T05:58:11.763Z,15.11
2018-06-23T05:58:52.371Z,15.15
2018-06-23T05:59:33.054Z,15.09
2018-06-23T06:00:13.622Z,15.1
2018-06-23T06:00:54.392Z,15.15
2018-06-23T06:01:35.323Z,15.09
2018-06-23T06:02:16.037Z,15.14
2018-06-23T06:02:56.810Z,15.11
2018-06-23T06:03:37.507Z,15.14
2018-06-23T06:04:18.413Z,15.15
2018-06-23T06:04:59.067Z,15.22
2018-06-23T06:05:40.107Z,15.19
2018-06-23T06:06:20.653Z,15.14
2018-06-23T06:07:01.310Z,15.15
2018-06-23T06:07:41.797Z,15.09
2018-06-23T06:08:22.940Z,15.09
2018-06-23T06:09:03.489Z,14.99
2018-06-23T06:09:44.025Z,15.03
2018-06-23T06:10:24.592Z,15.02
2018-06-23T06:11:05.135Z,14.86
2018-06-23T06:11:45.689Z,14.92
2018-06-23T06:12:26.276Z,14.86
2018-06-23T06:13:06.839Z,14.77
2018-06-23T06:13:47.444Z,14.88
2018-06-23T06:14:27.981Z,14.73
2018-06-23T06:15:08.559Z,14.86
2018-06-23T06:15:49.186Z,14.78
2018-06-23T06:16:29.707Z,14.79
2018-06-23T06:17:10.267Z,14.81
2018-06-23T06:17:50.811Z,14.82
2018-06-23T06:18:31.358Z,14.68
2018-06-23T06:19:11.888Z,14.78
2018-06-23T06:19:52.454Z,14.66
2018-06-23T06:20:33.025Z,14.69
2018-06-23T06:21:13.576Z,14.72
2018-06-23T06:21:54.134Z,14.68
2018-06-23T06:22:34.695Z,14.68
2018-06-23T06:23:15.244Z,14.66
2018-06-23T06:23:55.825Z,14.68
2018-06-23T06:24:36.708Z,14.7
2018-06-23T06:25:17.249Z,14.81
2018-06-23T06:25:57.814Z,14.79
2018-06-23T06:26:38.396Z,14.73
2018-06-23T06:27:18.935Z,14.7
2018-06-23T06:27:59.493Z,14.73
2018-06-23T06:28:40.059Z,14.68
2018-06-23T06:29:20.644Z,14.77
2018-06-23T06:30:01.204Z,14.79
2018-06-23T06:30:41.755Z,14.7
2018-06-23T06:31:22.341Z,14.78
2018-06-23T06:32:02.857Z,14.81
2018-06-23T06:32:43.419Z,14.86
2018-06-23T06:33:23.979Z,14.86
2018-06-23T06:34:04.553Z,14.86
2018-06-23T06:34:45.126Z,14.86
2018-06-23T06:35:25.781Z,14.88
2018-06-23T06:36:06.250Z,14.88
2018-06-23T06:36:46.785Z,14.88
2018-06-23T06:37:27.350Z,14.92
2018-06-23T06:38:07.892Z,14.88
2018-06-23T06:38:48.607Z,14.85
2018-06-23T06:39:29.554Z,14.92
2018-06-23T06:40:10.134Z,14.86
2018-06-23T06:40:50.700Z,14.88
2018-06-23T06:41:31.271Z,14.85
2018-06-23T06:42:11.827Z,14.86
2018-06-23T06:42:52.424Z,14.91
2018-06-23T06:43:32.979Z,14.89
2018-06-23T06:44:13.535Z,14.85
2018-06-23T06:44:54.104Z,14.84
2018-06-23T06:45:34.681Z,14.92
2018-06-23T06:46:15.255Z,14.82
2018-06-23T06:46:55.834Z,14.82
2018-06-23T06:47:36.428Z,14.84
2018-06-23T06:48:17.060Z,14.81
2018-06-23T06:48:57.624Z,14.81
2018-06-23T06:49:38.192Z,14.82
2018-06-23T06:50:18.744Z,14.81
2018-06-23T06:50:59.283Z,14.7
2018-06-23T06:51:39.840Z,14.73
2018-06-23T06:52:20.416Z,14.7
2018-06-23T06:53:01.153Z,14.7
2018-06-23T06:53:42.850Z,14.59
2018-06-23T06:54:23.545Z,14.68
2018-06-23T06:55:04.416Z,14.6
2018-06-23T06:55:44.971Z,14.55
2018-06-23T06:56:25.852Z,14.65
2018-06-23T06:57:06.664Z,14.62
2018-06-23T06:57:47.701Z,14.62
2018-06-23T06:58:28.597Z,14.58
2018-06-23T06:59:09.128Z,14.6
2018-06-23T06:59:49.700Z,14.59
2018-06-23T07:00:30.273Z,14.59
2018-06-23T07:01:10.854Z,14.66
2018-06-23T07:01:51.420Z,14.62
2018-06-23T07:02:32.008Z,14.69
2018-06-23T07:03:12.662Z,14.69
2018-06-23T07:03:53.588Z,14.68
2018-06-23T07:04:34.545Z,14.63
2018-06-23T07:05:15.117Z,14.6
2018-06-23T07:05:55.682Z,14.59
2018-06-23T07:06:36.282Z,14.6
2018-06-23T07:07:16.836Z,14.54
2018-06-23T07:07:57.458Z,14.54
2018-06-23T07:08:37.958Z,14.54
2018-06-23T07:09:18.508Z,14.55
2018-06-23T07:09:59.065Z,14.48
2018-06-23T07:10:39.640Z,14.45
2018-06-23T07:11:20.191Z,14.51
2018-06-23T07:12:00.740Z,14.51
2018-06-23T07:12:41.324Z,14.59
2018-06-23T07:13:22.013Z,14.5
2018-06-23T07:14:02.866Z,14.51
2018-06-23T07:14:43.905Z,14.53
2018-06-23T07:15:24.685Z,14.47
2018-06-23T07:16:05.324Z,14.51
2018-06-23T07:16:45.993Z,14.53
2018-06-23T07:17:26.560Z,14.54
2018-06-23T07:18:07.133Z,14.5
2018-06-23T07:18:47.689Z,14.59
2018-06-23T07:19:28.418Z,14.58
2018-06-23T07:20:08.989Z,14.7
2018-06-23T07:20:49.549Z,14.69
2018-06-23T07:21:30.118Z,14.66
2018-06-23T07:22:10.708Z,14.65
2018-06-23T07:22:51.274Z,14.78
2018-06-23T07:23:31.857Z,14.82
2018-06-23T07:24:12.455Z,14.86
2018-06-23T07:24:52.969Z,15.02
2018-06-23T07:25:33.540Z,15.02
2018-06-23T07:26:14.125Z,14.97
2018-06-23T07:26:54.736Z,15.07
2018-06-23T07:27:35.249Z,15.1
2018-06-23T07:28:15.809Z,15.17
2018-06-23T07:28:56.370Z,15.21
2018-06-23T07:29:36.943Z,15.19
2018-06-23T07:30:17.512Z,15.18
2018-06-23T07:30:58.093Z,15.33
2018-06-23T07:31:38.649Z,15.28
2018-06-23T07:32:19.219Z,15.28
2018-06-23T07:32:59.786Z,15.29
2018-06-23T07:33:40.380Z,15.22
2018-06-23T07:34:21.001Z,15.24
2018-06-23T07:35:01.595Z,15.28
2018-06-23T07:35:42.088Z,15.25
2018-06-23T07:36:22.646Z,15.21
2018-06-23T07:37:03.213Z,15.25
2018-06-23T07:37:43.787Z,15.28
2018-06-23T07:38:24.346Z,15.29
2018-06-23T07:39:04.902Z,15.28
2018-06-23T07:39:45.482Z,15.09
2018-06-23T07:40:26.108Z,15.24
2018-06-23T07:41:06.677Z,15.24
2018-06-23T07:41:47.261Z,15.18
2018-06-23T07:42:27.899Z,15.18
2018-06-23T07:43:08.504Z,15.18
2018-06-23T07:43:49.064Z,15.17
2018-06-23T07:44:29.618Z,15.18
2018-06-23T07:45:10.190Z,15.24
2018-06-23T07:45:50.745Z,15.28
2018-06-23T07:46:31.362Z,15.36
2018-06-23T07:47:11.875Z,15.36
2018-06-23T07:47:52.443Z,15.44
2018-06-23T07:48:33.026Z,15.44
2018-06-23T07:49:13.585Z,15.51
2018-06-23T07:49:54.154Z,15.55
2018-06-23T07:50:34.746Z,15.57
2018-06-23T07:51:15.310Z,15.65
2018-06-23T07:51:55.888Z,15.8
2018-06-23T07:52:36.448Z,15.77
2018-06-23T07:53:16.981Z,15.97
2018-06-23T07:53:57.536Z,16.05
2018-06-23T07:54:38.113Z,16.04
2018-06-23T07:55:18.661Z,16.09
2018-06-23T07:55:59.212Z,16.21
2018-06-23T07:56:39.782Z,16.26
2018-06-23T07:57:20.379Z,16.21
2018-06-23T07:58:00.934Z,16.24
2018-06-23T07:58:41.505Z,16.23
2018-06-23T07:59:22.053Z,16.32
2018-06-23T08:00:02.610Z,16.21
2018-06-23T08:00:43.173Z,16.24
2018-06-23T08:01:23.741Z,16.28
2018-06-23T08:02:04.302Z,16.21
2018-06-23T08:02:44.841Z,16.2
2018-06-23T08:03:25.423Z,16.31
2018-06-23T08:04:05.993Z,16.32
2018-06-23T08:04:46.551Z,16.16
2018-06-23T08:05:27.146Z,16.26
2018-06-23T08:06:07.719Z,16.21
2018-06-23T08:06:48.294Z,16.23
2018-06-23T08:07:28.956Z,16.24
2018-06-23T08:08:09.455Z,16.24
2018-06-23T08:08:50.027Z,16.24
2018-06-23T08:09:30.602Z,16.23
2018-06-23T08:10:11.163Z,16.33
2018-06-23T08:10:51.720Z,16.23
2018-06-23T08:11:32.289Z,16.17
2018-06-23T08:12:12.987Z,16.1
2018-06-23T08:12:53.542Z,16.05
2018-06-23T08:13:34.113Z,16.12
2018-06-23T08:14:14.677Z,16.1
2018-06-23T08:14:55.225Z,16.08
2018-06-23T08:15:35.787Z,16.04
2018-06-23T08:16:16.350Z,16.09
2018-06-23T08:16:56.939Z,15.95
2018-06-23T08:17:37.518Z,15.97
2018-06-23T08:18:18.071Z,15.91
2018-06-23T08:18:58.633Z,15.86
2018-06-23T08:19:39.177Z,15.8
2018-06-23T08:20:19.734Z,15.83
2018-06-23T08:21:00.286Z,15.75
2018-06-23T08:21:40.826Z,15.9
2018-06-23T08:22:21.407Z,15.8
2018-06-23T08:23:01.968Z,15.67
2018-06-23T08:23:42.498Z,15.57
2018-06-23T08:24:23.080Z,15.58
2018-06-23T08:25:03.610Z,15.62
2018-06-23T08:25:44.160Z,15.61
2018-06-23T08:26:24.792Z,15.62
2018-06-23T08:27:05.309Z,15.58
2018-06-23T08:27:45.878Z,15.59
2018-06-23T08:28:26.456Z,15.62
2018-06-23T08:29:07.003Z,15.61
2018-06-23T08:29:47.544Z,15.55
2018-06-23T08:30:28.113Z,15.59
2018-06-23T08:31:08.666Z,15.55
2018-06-23T08:31:49.300Z,15.59
2018-06-23T08:32:29.801Z,15.58
2018-06-23T08:33:10.375Z,15.58
2018-06-23T08:33:50.932Z,15.61
2018-06-23T08:34:31.486Z,15.58
2018-06-23T08:35:12.090Z,15.58
2018-06-23T08:35:52.649Z,15.68
2018-06-23T08:36:33.228Z,15.59
2018-06-23T08:37:13.835Z,15.59
2018-06-23T08:37:54.398Z,15.58
2018-06-23T08:38:35.010Z,15.65
2018-06-23T08:39:15.708Z,15.64
2018-06-23T08:39:56.288Z,15.59
2018-06-23T08:40:36.856Z,15.59
2018-06-23T08:41:17.438Z,15.58
2018-06-23T08:41:58.031Z,15.57
2018-06-23T08:42:38.587Z,15.54
2018-06-23T08:43:19.159Z,15.57
2018-06-23T08:43:59.714Z,15.54
2018-06-23T08:44:40.269Z,15.47
2018-06-23T08:45:20.841Z,15.46
2018-06-23T08:46:01.436Z,15.54
2018-06-23T08:46:42.006Z,15.47
2018-06-23T08:47:22.590Z,15.49